ケルン/ボン の空港の天気 - METARとTAF

ケルン・ボン空港 ( EDDK / CGN ) - ドイツ ケルン/ボン
飛行場実況気象(Metar)
観測時間10/18 09:50 CEST (10/18 07:50 UTC)
風向・風速南南東 5m/s
視程10km以上
天気現象
少しの雲 雲底高度 1040m
気温15℃
湿度82%
気圧1007hPa
METAREDDK 180750Z 16010KT 9999 FEW034 15/12 Q1007 NOSIG
過去の天気等 Google飛行場航空写真 Wunderground天気予報

過去48時間のMETAR

飛行場予報(TAF)
発表時間: 10/18 07:00 CEST (10/18 05:00 UTC)
予報対象時間: 18日8時 CEST ~ 19日14時 CEST
風向・風速南 5m/s
視程10km以上
全天の8割程度の雲 雲底高度 1220m
18日10時 CEST ~ 18日17時 CEST に一時的に
風向・風速南南西 8m/s 瞬間風速 13m/s
天気現象しゅう雨
全天の8割程度の積乱雲 雲底高度 910m
18日11時 CEST ~ 18日15時 CEST に 確率 30% で一時的に
風向・風速南西 10m/s 瞬間風速 18m/s
視程4500m
天気現象雷雨
全天の8割程度の積乱雲 雲底高度 610m
19日11時 CEST ~ 19日14時 CEST に一時的に
天気現象
TAF EDDK 180500Z 1806/1912 17009KT 9999 BKN040
TEMPO 1808/1815 21015G25KT SHRA BKN030CB
PROB30 TEMPO 1809/1813 22020G35KT 4500 TSRA BKN020CB
TEMPO 1909/1912 RA